sensor_id;sensor_type;location;lat;lon;timestamp;P1;durP1;ratioP1;P2;durP2;ratioP2
12986;SDS011;58897;51.960;5.582;2023-04-16T00:01:08;10.77;;;4.33;;
12986;SDS011;58897;51.960;5.582;2023-04-16T00:03:35;11.90;;;3.70;;
12986;SDS011;58897;51.960;5.582;2023-04-16T00:06:02;13.80;;;5.57;;
12986;SDS011;58897;51.960;5.582;2023-04-16T00:08:29;9.00;;;4.07;;
12986;SDS011;58897;51.960;5.582;2023-04-16T00:10:56;9.63;;;3.03;;
12986;SDS011;58897;51.960;5.582;2023-04-16T00:13:23;9.00;;;3.87;;
12986;SDS011;58897;51.960;5.582;2023-04-16T00:15:51;9.43;;;3.53;;
12986;SDS011;58897;51.960;5.582;2023-04-16T00:18:18;10.97;;;3.27;;
12986;SDS011;58897;51.960;5.582;2023-04-16T00:20:46;8.07;;;3.40;;
12986;SDS011;58897;51.960;5.582;2023-04-16T00:23:14;8.70;;;3.27;;
12986;SDS011;58897;51.960;5.582;2023-04-16T00:25:41;8.10;;;3.50;;
12986;SDS011;58897;51.960;5.582;2023-04-16T00:28:08;12.30;;;5.20;;
12986;SDS011;58897;51.960;5.582;2023-04-16T00:30:36;10.20;;;4.03;;
12986;SDS011;58897;51.960;5.582;2023-04-16T00:33:03;9.77;;;4.40;;
12986;SDS011;58897;51.960;5.582;2023-04-16T00:35:30;9.20;;;3.67;;
12986;SDS011;58897;51.960;5.582;2023-04-16T00:37:56;8.97;;;4.63;;
12986;SDS011;58897;51.960;5.582;2023-04-16T00:40:26;10.07;;;3.97;;
12986;SDS011;58897;51.960;5.582;2023-04-16T00:42:54;10.80;;;3.73;;
12986;SDS011;58897;51.960;5.582;2023-04-16T00:45:20;10.83;;;4.10;;
12986;SDS011;58897;51.960;5.582;2023-04-16T00:47:47;15.20;;;6.30;;
12986;SDS011;58897;51.960;5.582;2023-04-16T00:50:14;14.97;;;5.80;;
12986;SDS011;58897;51.960;5.582;2023-04-16T00:52:41;8.07;;;3.77;;
12986;SDS011;58897;51.960;5.582;2023-04-16T00:55:08;11.27;;;3.97;;
12986;SDS011;58897;51.960;5.582;2023-04-16T00:57:38;9.50;;;3.67;;
12986;SDS011;58897;51.960;5.582;2023-04-16T01:00:05;15.57;;;5.90;;
12986;SDS011;58897;51.960;5.582;2023-04-16T01:02:32;11.47;;;4.67;;
12986;SDS011;58897;51.960;5.582;2023-04-16T01:05:00;11.67;;;4.10;;
12986;SDS011;58897;51.960;5.582;2023-04-16T01:07:27;11.77;;;5.07;;
12986;SDS011;58897;51.960;5.582;2023-04-16T01:09:54;11.33;;;4.57;;
12986;SDS011;58897;51.960;5.582;2023-04-16T01:12:21;12.87;;;3.87;;
12986;SDS011;58897;51.960;5.582;2023-04-16T01:14:48;12.90;;;4.70;;
12986;SDS011;58897;51.960;5.582;2023-04-16T01:17:15;11.30;;;5.20;;
12986;SDS011;58897;51.960;5.582;2023-04-16T01:19:41;8.83;;;4.20;;
12986;SDS011;58897;51.960;5.582;2023-04-16T01:22:08;13.57;;;6.17;;
12986;SDS011;58897;51.960;5.582;2023-04-16T01:24:34;9.47;;;4.47;;
12986;SDS011;58897;51.960;5.582;2023-04-16T01:27:01;13.90;;;5.13;;
12986;SDS011;58897;51.960;5.582;2023-04-16T01:29:28;12.67;;;4.83;;
12986;SDS011;58897;51.960;5.582;2023-04-16T01:31:54;16.67;;;5.77;;
12986;SDS011;58897;51.960;5.582;2023-04-16T01:34:21;9.70;;;4.53;;
12986;SDS011;58897;51.960;5.582;2023-04-16T01:36:48;12.67;;;5.53;;
12986;SDS011;58897;51.960;5.582;2023-04-16T01:39:14;17.03;;;7.13;;
12986;SDS011;58897;51.960;5.582;2023-04-16T01:41:41;11.20;;;4.50;;
12986;SDS011;58897;51.960;5.582;2023-04-16T01:44:08;11.40;;;4.67;;
12986;SDS011;58897;51.960;5.582;2023-04-16T01:46:35;16.30;;;6.47;;
12986;SDS011;58897;51.960;5.582;2023-04-16T01:49:03;15.13;;;5.57;;
12986;SDS011;58897;51.960;5.582;2023-04-16T01:51:29;17.50;;;6.33;;
12986;SDS011;58897;51.960;5.582;2023-04-16T01:53:57;12.53;;;5.30;;
12986;SDS011;58897;51.960;5.582;2023-04-16T01:56:24;14.30;;;6.70;;
12986;SDS011;58897;51.960;5.582;2023-04-16T01:58:51;12.60;;;5.17;;
12986;SDS011;58897;51.960;5.582;2023-04-16T02:01:18;17.27;;;7.60;;
12986;SDS011;58897;51.960;5.582;2023-04-16T02:03:45;16.13;;;6.13;;
12986;SDS011;58897;51.960;5.582;2023-04-16T02:06:12;18.27;;;7.13;;
12986;SDS011;58897;51.960;5.582;2023-04-16T02:08:39;16.37;;;5.10;;
12986;SDS011;58897;51.960;5.582;2023-04-16T02:11:06;21.50;;;10.43;;
12986;SDS011;58897;51.960;5.582;2023-04-16T02:13:33;14.90;;;6.17;;
12986;SDS011;58897;51.960;5.582;2023-04-16T02:16:00;15.97;;;5.70;;
12986;SDS011;58897;51.960;5.582;2023-04-16T02:18:27;12.97;;;5.70;;
12986;SDS011;58897;51.960;5.582;2023-04-16T02:20:54;11.57;;;5.60;;
12986;SDS011;58897;51.960;5.582;2023-04-16T02:23:23;9.50;;;5.23;;
12986;SDS011;58897;51.960;5.582;2023-04-16T02:25:50;17.30;;;6.83;;
12986;SDS011;58897;51.960;5.582;2023-04-16T02:28:16;17.60;;;6.70;;
12986;SDS011;58897;51.960;5.582;2023-04-16T02:30:43;16.40;;;5.67;;
12986;SDS011;58897;51.960;5.582;2023-04-16T02:33:10;17.77;;;6.70;;
12986;SDS011;58897;51.960;5.582;2023-04-16T02:35:38;14.97;;;6.17;;
12986;SDS011;58897;51.960;5.582;2023-04-16T02:38:05;23.10;;;8.20;;
12986;SDS011;58897;51.960;5.582;2023-04-16T02:40:32;15.87;;;5.80;;
12986;SDS011;58897;51.960;5.582;2023-04-16T02:42:59;14.57;;;5.63;;
12986;SDS011;58897;51.960;5.582;2023-04-16T02:45:25;18.30;;;5.80;;
12986;SDS011;58897;51.960;5.582;2023-04-16T02:47:52;12.17;;;6.07;;
12986;SDS011;58897;51.960;5.582;2023-04-16T02:50:19;14.10;;;5.80;;
12986;SDS011;58897;51.960;5.582;2023-04-16T02:52:45;14.73;;;5.60;;
12986;SDS011;58897;51.960;5.582;2023-04-16T02:55:12;14.20;;;6.23;;
12986;SDS011;58897;51.960;5.582;2023-04-16T02:57:38;17.27;;;6.20;;
12986;SDS011;58897;51.960;5.582;2023-04-16T03:00:06;17.17;;;7.03;;
12986;SDS011;58897;51.960;5.582;2023-04-16T03:02:35;17.80;;;5.97;;
12986;SDS011;58897;51.960;5.582;2023-04-16T03:05:02;14.43;;;5.67;;
12986;SDS011;58897;51.960;5.582;2023-04-16T03:07:29;20.10;;;6.40;;
12986;SDS011;58897;51.960;5.582;2023-04-16T03:09:55;16.13;;;5.63;;
12986;SDS011;58897;51.960;5.582;2023-04-16T03:12:22;16.40;;;7.00;;
12986;SDS011;58897;51.960;5.582;2023-04-16T03:14:52;18.73;;;6.77;;
12986;SDS011;58897;51.960;5.582;2023-04-16T03:17:18;18.63;;;7.53;;
12986;SDS011;58897;51.960;5.582;2023-04-16T03:19:45;17.83;;;6.30;;
12986;SDS011;58897;51.960;5.582;2023-04-16T03:22:11;13.00;;;6.47;;
12986;SDS011;58897;51.960;5.582;2023-04-16T03:24:38;16.03;;;6.53;;
12986;SDS011;58897;51.960;5.582;2023-04-16T03:27:04;18.10;;;7.30;;
12986;SDS011;58897;51.960;5.582;2023-04-16T03:29:31;14.43;;;6.97;;
12986;SDS011;58897;51.960;5.582;2023-04-16T03:31:57;17.13;;;7.53;;
12986;SDS011;58897;51.960;5.582;2023-04-16T03:34:24;18.23;;;7.37;;
12986;SDS011;58897;51.960;5.582;2023-04-16T03:36:50;21.90;;;9.30;;
12986;SDS011;58897;51.960;5.582;2023-04-16T03:39:17;21.60;;;8.63;;
12986;SDS011;58897;51.960;5.582;2023-04-16T03:41:44;17.47;;;7.40;;
12986;SDS011;58897;51.960;5.582;2023-04-16T03:44:11;19.80;;;8.57;;
12986;SDS011;58897;51.960;5.582;2023-04-16T03:46:37;14.47;;;6.37;;
12986;SDS011;58897;51.960;5.582;2023-04-16T03:49:04;14.60;;;7.00;;
12986;SDS011;58897;51.960;5.582;2023-04-16T03:51:31;16.73;;;7.50;;
12986;SDS011;58897;51.960;5.582;2023-04-16T03:53:58;18.20;;;7.77;;
12986;SDS011;58897;51.960;5.582;2023-04-16T03:56:24;18.97;;;8.23;;
12986;SDS011;58897;51.960;5.582;2023-04-16T03:58:51;17.60;;;7.63;;
12986;SDS011;58897;51.960;5.582;2023-04-16T04:01:17;21.80;;;9.30;;
12986;SDS011;58897;51.960;5.582;2023-04-16T04:03:44;20.37;;;7.93;;
12986;SDS011;58897;51.960;5.582;2023-04-16T04:06:11;21.50;;;9.57;;
12986;SDS011;58897;51.960;5.582;2023-04-16T04:08:38;18.70;;;8.80;;
12986;SDS011;58897;51.960;5.582;2023-04-16T04:11:04;16.43;;;8.53;;
12986;SDS011;58897;51.960;5.582;2023-04-16T04:13:31;19.60;;;8.17;;
12986;SDS011;58897;51.960;5.582;2023-04-16T04:15:57;14.93;;;7.53;;
12986;SDS011;58897;51.960;5.582;2023-04-16T04:18:24;20.20;;;8.60;;
12986;SDS011;58897;51.960;5.582;2023-04-16T04:20:50;19.13;;;9.17;;
12986;SDS011;58897;51.960;5.582;2023-04-16T04:23:17;21.67;;;8.87;;
12986;SDS011;58897;51.960;5.582;2023-04-16T04:25:44;15.47;;;7.80;;
12986;SDS011;58897;51.960;5.582;2023-04-16T04:28:10;18.10;;;7.70;;
12986;SDS011;58897;51.960;5.582;2023-04-16T04:30:37;17.80;;;7.30;;
12986;SDS011;58897;51.960;5.582;2023-04-16T04:33:03;15.37;;;7.43;;
12986;SDS011;58897;51.960;5.582;2023-04-16T04:35:30;14.30;;;6.80;;
12986;SDS011;58897;51.960;5.582;2023-04-16T04:37:56;17.87;;;7.80;;
12986;SDS011;58897;51.960;5.582;2023-04-16T04:40:22;15.67;;;7.43;;
12986;SDS011;58897;51.960;5.582;2023-04-16T04:42:49;14.43;;;7.07;;
12986;SDS011;58897;51.960;5.582;2023-04-16T04:45:15;22.63;;;9.40;;
12986;SDS011;58897;51.960;5.582;2023-04-16T04:47:42;16.70;;;7.23;;
12986;SDS011;58897;51.960;5.582;2023-04-16T04:50:08;12.80;;;6.37;;
12986;SDS011;58897;51.960;5.582;2023-04-16T04:52:36;19.23;;;7.17;;
12986;SDS011;58897;51.960;5.582;2023-04-16T04:55:02;21.13;;;8.00;;
12986;SDS011;58897;51.960;5.582;2023-04-16T04:57:29;16.60;;;7.73;;
12986;SDS011;58897;51.960;5.582;2023-04-16T04:59:55;19.87;;;7.87;;
12986;SDS011;58897;51.960;5.582;2023-04-16T05:02:22;18.50;;;8.07;;
12986;SDS011;58897;51.960;5.582;2023-04-16T05:04:48;13.83;;;6.63;;
12986;SDS011;58897;51.960;5.582;2023-04-16T05:07:15;20.73;;;8.57;;
12986;SDS011;58897;51.960;5.582;2023-04-16T05:09:41;19.97;;;7.73;;
12986;SDS011;58897;51.960;5.582;2023-04-16T05:12:08;16.23;;;7.53;;
12986;SDS011;58897;51.960;5.582;2023-04-16T05:14:34;19.87;;;8.67;;
12986;SDS011;58897;51.960;5.582;2023-04-16T05:17:01;18.50;;;7.80;;
12986;SDS011;58897;51.960;5.582;2023-04-16T05:19:28;19.70;;;7.87;;
12986;SDS011;58897;51.960;5.582;2023-04-16T05:21:54;23.90;;;8.63;;
12986;SDS011;58897;51.960;5.582;2023-04-16T05:24:21;15.10;;;7.80;;
12986;SDS011;58897;51.960;5.582;2023-04-16T05:26:47;17.33;;;7.60;;
12986;SDS011;58897;51.960;5.582;2023-04-16T05:29:14;20.20;;;9.63;;
12986;SDS011;58897;51.960;5.582;2023-04-16T05:31:41;18.53;;;7.30;;
12986;SDS011;58897;51.960;5.582;2023-04-16T05:34:07;14.63;;;6.73;;
12986;SDS011;58897;51.960;5.582;2023-04-16T05:36:34;15.87;;;7.13;;
12986;SDS011;58897;51.960;5.582;2023-04-16T05:39:00;14.80;;;7.83;;
12986;SDS011;58897;51.960;5.582;2023-04-16T05:41:27;19.17;;;8.47;;
12986;SDS011;58897;51.960;5.582;2023-04-16T05:43:53;20.50;;;8.33;;
12986;SDS011;58897;51.960;5.582;2023-04-16T05:46:20;22.50;;;8.33;;
12986;SDS011;58897;51.960;5.582;2023-04-16T05:48:46;15.57;;;7.00;;
12986;SDS011;58897;51.960;5.582;2023-04-16T05:51:13;19.57;;;8.37;;
12986;SDS011;58897;51.960;5.582;2023-04-16T05:53:39;16.33;;;7.77;;
12986;SDS011;58897;51.960;5.582;2023-04-16T05:56:07;17.87;;;8.30;;
12986;SDS011;58897;51.960;5.582;2023-04-16T05:58:33;19.13;;;7.97;;
12986;SDS011;58897;51.960;5.582;2023-04-16T06:01:00;16.23;;;7.40;;
12986;SDS011;58897;51.960;5.582;2023-04-16T06:03:27;21.17;;;9.27;;
12986;SDS011;58897;51.960;5.582;2023-04-16T06:05:53;16.50;;;8.17;;
12986;SDS011;58897;51.960;5.582;2023-04-16T06:08:20;16.97;;;8.80;;
12986;SDS011;58897;51.960;5.582;2023-04-16T06:10:46;15.20;;;7.50;;
12986;SDS011;58897;51.960;5.582;2023-04-16T06:13:13;17.63;;;7.97;;
12986;SDS011;58897;51.960;5.582;2023-04-16T06:15:40;18.63;;;8.70;;
12986;SDS011;58897;51.960;5.582;2023-04-16T06:18:07;20.00;;;8.97;;
12986;SDS011;58897;51.960;5.582;2023-04-16T06:20:33;22.90;;;9.67;;
12986;SDS011;58897;51.960;5.582;2023-04-16T06:23:00;20.40;;;8.20;;
12986;SDS011;58897;51.960;5.582;2023-04-16T06:25:26;22.43;;;9.13;;
12986;SDS011;58897;51.960;5.582;2023-04-16T06:27:53;16.47;;;8.47;;
12986;SDS011;58897;51.960;5.582;2023-04-16T06:30:19;19.77;;;8.90;;
12986;SDS011;58897;51.960;5.582;2023-04-16T06:32:46;18.97;;;7.97;;
12986;SDS011;58897;51.960;5.582;2023-04-16T06:35:14;17.63;;;7.93;;
12986;SDS011;58897;51.960;5.582;2023-04-16T06:37:41;20.93;;;8.90;;
12986;SDS011;58897;51.960;5.582;2023-04-16T06:40:07;19.40;;;9.27;;
12986;SDS011;58897;51.960;5.582;2023-04-16T06:42:34;22.07;;;9.00;;
12986;SDS011;58897;51.960;5.582;2023-04-16T06:45:01;11.97;;;7.17;;
12986;SDS011;58897;51.960;5.582;2023-04-16T06:47:27;19.33;;;9.30;;
12986;SDS011;58897;51.960;5.582;2023-04-16T06:49:54;18.57;;;9.90;;
12986;SDS011;58897;51.960;5.582;2023-04-16T06:52:21;19.27;;;8.80;;
12986;SDS011;58897;51.960;5.582;2023-04-16T06:54:47;19.13;;;8.40;;
12986;SDS011;58897;51.960;5.582;2023-04-16T06:57:14;19.20;;;8.03;;
12986;SDS011;58897;51.960;5.582;2023-04-16T06:59:41;20.07;;;9.40;;
12986;SDS011;58897;51.960;5.582;2023-04-16T07:02:08;18.10;;;8.30;;
12986;SDS011;58897;51.960;5.582;2023-04-16T07:04:36;21.13;;;9.70;;
12986;SDS011;58897;51.960;5.582;2023-04-16T07:07:02;16.93;;;8.33;;
12986;SDS011;58897;51.960;5.582;2023-04-16T07:09:29;21.37;;;9.27;;
12986;SDS011;58897;51.960;5.582;2023-04-16T07:11:55;22.87;;;11.10;;
12986;SDS011;58897;51.960;5.582;2023-04-16T07:14:22;18.87;;;9.00;;
12986;SDS011;58897;51.960;5.582;2023-04-16T07:16:48;17.37;;;8.60;;
12986;SDS011;58897;51.960;5.582;2023-04-16T07:19:15;23.67;;;9.53;;
12986;SDS011;58897;51.960;5.582;2023-04-16T07:21:41;21.10;;;9.47;;
12986;SDS011;58897;51.960;5.582;2023-04-16T07:24:09;17.30;;;8.97;;
12986;SDS011;58897;51.960;5.582;2023-04-16T07:26:36;21.53;;;9.73;;
12986;SDS011;58897;51.960;5.582;2023-04-16T07:29:03;24.87;;;11.30;;
12986;SDS011;58897;51.960;5.582;2023-04-16T07:31:29;23.40;;;9.17;;
12986;SDS011;58897;51.960;5.582;2023-04-16T07:33:56;21.87;;;10.57;;
12986;SDS011;58897;51.960;5.582;2023-04-16T07:36:23;24.83;;;11.70;;
12986;SDS011;58897;51.960;5.582;2023-04-16T07:38:49;20.33;;;10.10;;
12986;SDS011;58897;51.960;5.582;2023-04-16T07:41:16;20.17;;;10.00;;
12986;SDS011;58897;51.960;5.582;2023-04-16T07:43:42;25.87;;;12.10;;
12986;SDS011;58897;51.960;5.582;2023-04-16T07:46:09;20.53;;;10.37;;
12986;SDS011;58897;51.960;5.582;2023-04-16T07:48:36;21.50;;;10.80;;
12986;SDS011;58897;51.960;5.582;2023-04-16T07:51:02;23.00;;;10.33;;
12986;SDS011;58897;51.960;5.582;2023-04-16T07:53:29;21.60;;;10.27;;
12986;SDS011;58897;51.960;5.582;2023-04-16T07:55:55;23.87;;;10.30;;
12986;SDS011;58897;51.960;5.582;2023-04-16T07:58:22;20.03;;;10.03;;
12986;SDS011;58897;51.960;5.582;2023-04-16T08:00:48;19.73;;;10.77;;
12986;SDS011;58897;51.960;5.582;2023-04-16T08:03:16;23.30;;;10.20;;
12986;SDS011;58897;51.960;5.582;2023-04-16T08:05:43;22.73;;;11.60;;
12986;SDS011;58897;51.960;5.582;2023-04-16T08:08:10;22.87;;;10.07;;
12986;SDS011;58897;51.960;5.582;2023-04-16T08:10:37;23.47;;;12.60;;
12986;SDS011;58897;51.960;5.582;2023-04-16T08:13:04;19.73;;;10.40;;
12986;SDS011;58897;51.960;5.582;2023-04-16T08:15:30;26.20;;;12.60;;
12986;SDS011;58897;51.960;5.582;2023-04-16T08:17:57;22.37;;;10.93;;
12986;SDS011;58897;51.960;5.582;2023-04-16T08:20:24;26.47;;;16.13;;
12986;SDS011;58897;51.960;5.582;2023-04-16T08:22:52;29.77;;;12.80;;
12986;SDS011;58897;51.960;5.582;2023-04-16T08:25:20;22.67;;;10.53;;
12986;SDS011;58897;51.960;5.582;2023-04-16T08:27:47;22.77;;;11.30;;
12986;SDS011;58897;51.960;5.582;2023-04-16T08:30:14;20.10;;;10.20;;
12986;SDS011;58897;51.960;5.582;2023-04-16T08:32:42;21.80;;;10.77;;
12986;SDS011;58897;51.960;5.582;2023-04-16T08:35:08;20.77;;;10.57;;
12986;SDS011;58897;51.960;5.582;2023-04-16T08:37:35;20.13;;;10.47;;
12986;SDS011;58897;51.960;5.582;2023-04-16T08:40:02;22.47;;;10.27;;
12986;SDS011;58897;51.960;5.582;2023-04-16T08:42:33;21.17;;;10.10;;
12986;SDS011;58897;51.960;5.582;2023-04-16T08:45:06;19.77;;;10.03;;
12986;SDS011;58897;51.960;5.582;2023-04-16T08:47:34;23.77;;;11.77;;
12986;SDS011;58897;51.960;5.582;2023-04-16T08:50:03;21.03;;;10.37;;
12986;SDS011;58897;51.960;5.582;2023-04-16T08:52:30;18.10;;;9.40;;
12986;SDS011;58897;51.960;5.582;2023-04-16T08:55:05;21.10;;;10.00;;
12986;SDS011;58897;51.960;5.582;2023-04-16T08:57:37;22.53;;;10.40;;
12986;SDS011;58897;51.960;5.582;2023-04-16T09:00:09;21.93;;;10.73;;
12986;SDS011;58897;51.960;5.582;2023-04-16T09:02:37;20.17;;;9.70;;
12986;SDS011;58897;51.960;5.582;2023-04-16T09:05:04;18.50;;;9.73;;
12986;SDS011;58897;51.960;5.582;2023-04-16T09:07:33;23.30;;;10.33;;
12986;SDS011;58897;51.960;5.582;2023-04-16T09:10:00;15.63;;;9.27;;
12986;SDS011;58897;51.960;5.582;2023-04-16T09:12:27;18.23;;;9.43;;
12986;SDS011;58897;51.960;5.582;2023-04-16T09:14:55;17.73;;;9.53;;
12986;SDS011;58897;51.960;5.582;2023-04-16T09:17:22;20.37;;;10.37;;
12986;SDS011;58897;51.960;5.582;2023-04-16T09:19:48;27.07;;;10.50;;
12986;SDS011;58897;51.960;5.582;2023-04-16T09:22:15;18.73;;;9.63;;
12986;SDS011;58897;51.960;5.582;2023-04-16T09:24:42;21.93;;;9.63;;
12986;SDS011;58897;51.960;5.582;2023-04-16T09:27:08;17.70;;;9.63;;
12986;SDS011;58897;51.960;5.582;2023-04-16T09:29:40;19.30;;;9.77;;
12986;SDS011;58897;51.960;5.582;2023-04-16T09:32:08;17.57;;;9.73;;
12986;SDS011;58897;51.960;5.582;2023-04-16T09:34:55;21.90;;;10.73;;
12986;SDS011;58897;51.960;5.582;2023-04-16T09:37:29;20.07;;;10.50;;
12986;SDS011;58897;51.960;5.582;2023-04-16T09:39:59;23.27;;;11.13;;
12986;SDS011;58897;51.960;5.582;2023-04-16T09:42:30;22.80;;;11.07;;
12986;SDS011;58897;51.960;5.582;2023-04-16T09:44:59;24.20;;;10.73;;
12986;SDS011;58897;51.960;5.582;2023-04-16T09:47:43;19.87;;;10.83;;
12986;SDS011;58897;51.960;5.582;2023-04-16T09:50:15;24.20;;;11.83;;
12986;SDS011;58897;51.960;5.582;2023-04-16T09:52:44;19.00;;;9.70;;
12986;SDS011;58897;51.960;5.582;2023-04-16T09:55:14;23.50;;;10.97;;
12986;SDS011;58897;51.960;5.582;2023-04-16T09:57:40;24.37;;;11.97;;
12986;SDS011;58897;51.960;5.582;2023-04-16T10:00:07;23.50;;;11.70;;
12986;SDS011;58897;51.960;5.582;2023-04-16T10:02:35;24.03;;;12.20;;
12986;SDS011;58897;51.960;5.582;2023-04-16T10:05:07;20.67;;;11.23;;
12986;SDS011;58897;51.960;5.582;2023-04-16T10:07:34;22.90;;;11.90;;
12986;SDS011;58897;51.960;5.582;2023-04-16T10:10:02;18.23;;;10.57;;
12986;SDS011;58897;51.960;5.582;2023-04-16T10:12:29;19.50;;;10.27;;
12986;SDS011;58897;51.960;5.582;2023-04-16T10:14:58;21.47;;;11.23;;
12986;SDS011;58897;51.960;5.582;2023-04-16T10:17:25;22.50;;;10.70;;
12986;SDS011;58897;51.960;5.582;2023-04-16T10:19:55;24.17;;;11.67;;
12986;SDS011;58897;51.960;5.582;2023-04-16T10:22:23;22.33;;;11.33;;
12986;SDS011;58897;51.960;5.582;2023-04-16T10:24:50;21.73;;;12.20;;
12986;SDS011;58897;51.960;5.582;2023-04-16T10:27:18;19.40;;;10.93;;
12986;SDS011;58897;51.960;5.582;2023-04-16T10:29:45;20.40;;;9.87;;
12986;SDS011;58897;51.960;5.582;2023-04-16T10:32:13;17.17;;;9.30;;
12986;SDS011;58897;51.960;5.582;2023-04-16T10:34:40;17.50;;;9.37;;
12986;SDS011;58897;51.960;5.582;2023-04-16T10:37:07;17.13;;;9.73;;
12986;SDS011;58897;51.960;5.582;2023-04-16T10:39:34;17.23;;;9.70;;
12986;SDS011;58897;51.960;5.582;2023-04-16T10:42:10;25.03;;;11.03;;
12986;SDS011;58897;51.960;5.582;2023-04-16T10:44:41;19.77;;;10.50;;
12986;SDS011;58897;51.960;5.582;2023-04-16T10:47:11;17.70;;;9.90;;
12986;SDS011;58897;51.960;5.582;2023-04-16T10:49:38;17.03;;;9.17;;
12986;SDS011;58897;51.960;5.582;2023-04-16T10:54:39;15.60;;;8.77;;
12986;SDS011;58897;51.960;5.582;2023-04-16T10:57:09;16.40;;;9.73;;
12986;SDS011;58897;51.960;5.582;2023-04-16T10:59:41;14.60;;;8.70;;
12986;SDS011;58897;51.960;5.582;2023-04-16T11:02:13;16.03;;;8.67;;
12986;SDS011;58897;51.960;5.582;2023-04-16T11:04:41;13.30;;;7.60;;
12986;SDS011;58897;51.960;5.582;2023-04-16T11:20:06;14.10;;;8.07;;
12986;SDS011;58897;51.960;5.582;2023-04-16T11:22:46;14.10;;;7.63;;
12986;SDS011;58897;51.960;5.582;2023-04-16T11:25:22;13.53;;;7.50;;
12986;SDS011;58897;51.960;5.582;2023-04-16T11:27:49;14.93;;;6.80;;
12986;SDS011;58897;51.960;5.582;2023-04-16T11:30:17;14.30;;;8.13;;
12986;SDS011;58897;51.960;5.582;2023-04-16T11:32:53;14.60;;;7.80;;
12986;SDS011;58897;51.960;5.582;2023-04-16T11:35:19;15.57;;;8.57;;
12986;SDS011;58897;51.960;5.582;2023-04-16T11:37:46;17.67;;;8.10;;
12986;SDS011;58897;51.960;5.582;2023-04-16T11:40:16;15.37;;;7.67;;
12986;SDS011;58897;51.960;5.582;2023-04-16T11:42:42;15.27;;;8.23;;
12986;SDS011;58897;51.960;5.582;2023-04-16T11:45:10;13.87;;;7.50;;
12986;SDS011;58897;51.960;5.582;2023-04-16T11:50:29;16.07;;;9.23;;
12986;SDS011;58897;51.960;5.582;2023-04-16T11:52:57;15.80;;;8.03;;
12986;SDS011;58897;51.960;5.582;2023-04-16T11:55:29;16.40;;;8.80;;
12986;SDS011;58897;51.960;5.582;2023-04-16T11:57:56;17.37;;;9.63;;
12986;SDS011;58897;51.960;5.582;2023-04-16T12:00:22;16.73;;;8.50;;
12986;SDS011;58897;51.960;5.582;2023-04-16T12:02:51;18.30;;;9.13;;
12986;SDS011;58897;51.960;5.582;2023-04-16T12:07:53;20.60;;;9.57;;
12986;SDS011;58897;51.960;5.582;2023-04-16T12:10:20;14.87;;;8.53;;
12986;SDS011;58897;51.960;5.582;2023-04-16T12:12:47;15.43;;;8.20;;
12986;SDS011;58897;51.960;5.582;2023-04-16T12:15:13;14.67;;;8.70;;
12986;SDS011;58897;51.960;5.582;2023-04-16T12:17:40;12.43;;;7.43;;
12986;SDS011;58897;51.960;5.582;2023-04-16T12:20:07;15.60;;;8.27;;
12986;SDS011;58897;51.960;5.582;2023-04-16T12:22:39;18.50;;;9.97;;
12986;SDS011;58897;51.960;5.582;2023-04-16T12:25:10;22.63;;;10.77;;
12986;SDS011;58897;51.960;5.582;2023-04-16T12:30:15;15.43;;;8.33;;
12986;SDS011;58897;51.960;5.582;2023-04-16T12:32:44;14.67;;;7.87;;
12986;SDS011;58897;51.960;5.582;2023-04-16T12:35:30;18.00;;;8.67;;
12986;SDS011;58897;51.960;5.582;2023-04-16T12:37:58;17.87;;;9.80;;
12986;SDS011;58897;51.960;5.582;2023-04-16T12:40:25;13.00;;;8.27;;
12986;SDS011;58897;51.960;5.582;2023-04-16T12:42:52;17.13;;;9.43;;
12986;SDS011;58897;51.960;5.582;2023-04-16T12:45:20;13.97;;;9.10;;
12986;SDS011;58897;51.960;5.582;2023-04-16T12:47:47;14.50;;;8.47;;
12986;SDS011;58897;51.960;5.582;2023-04-16T12:50:15;15.20;;;8.77;;
12986;SDS011;58897;51.960;5.582;2023-04-16T12:52:42;13.90;;;7.93;;
12986;SDS011;58897;51.960;5.582;2023-04-16T12:55:09;15.53;;;9.60;;
12986;SDS011;58897;51.960;5.582;2023-04-16T12:57:35;14.33;;;8.63;;
12986;SDS011;58897;51.960;5.582;2023-04-16T13:00:02;18.97;;;9.63;;
12986;SDS011;58897;51.960;5.582;2023-04-16T13:02:31;17.57;;;9.17;;
12986;SDS011;58897;51.960;5.582;2023-04-16T13:04:58;14.33;;;9.20;;
12986;SDS011;58897;51.960;5.582;2023-04-16T13:07:24;17.90;;;8.60;;
12986;SDS011;58897;51.960;5.582;2023-04-16T13:09:51;12.80;;;8.73;;
12986;SDS011;58897;51.960;5.582;2023-04-16T13:12:18;14.13;;;8.87;;
12986;SDS011;58897;51.960;5.582;2023-04-16T13:14:44;19.07;;;9.20;;
12986;SDS011;58897;51.960;5.582;2023-04-16T13:17:11;18.57;;;10.07;;
12986;SDS011;58897;51.960;5.582;2023-04-16T13:19:37;19.47;;;9.53;;
12986;SDS011;58897;51.960;5.582;2023-04-16T13:22:04;19.30;;;9.90;;
12986;SDS011;58897;51.960;5.582;2023-04-16T13:24:30;19.20;;;10.13;;
12986;SDS011;58897;51.960;5.582;2023-04-16T13:26:57;18.17;;;9.43;;
12986;SDS011;58897;51.960;5.582;2023-04-16T13:29:23;15.27;;;9.30;;
12986;SDS011;58897;51.960;5.582;2023-04-16T13:31:50;19.07;;;10.53;;
12986;SDS011;58897;51.960;5.582;2023-04-16T13:34:17;23.77;;;11.43;;
12986;SDS011;58897;51.960;5.582;2023-04-16T13:36:43;19.93;;;9.70;;
12986;SDS011;58897;51.960;5.582;2023-04-16T13:39:10;18.23;;;10.23;;
12986;SDS011;58897;51.960;5.582;2023-04-16T13:41:37;20.87;;;10.53;;
12986;SDS011;58897;51.960;5.582;2023-04-16T13:44:04;21.73;;;10.50;;
12986;SDS011;58897;51.960;5.582;2023-04-16T13:46:31;17.83;;;9.73;;
12986;SDS011;58897;51.960;5.582;2023-04-16T13:48:58;21.90;;;10.47;;
12986;SDS011;58897;51.960;5.582;2023-04-16T13:51:25;21.00;;;10.40;;
12986;SDS011;58897;51.960;5.582;2023-04-16T13:53:53;17.77;;;9.33;;
12986;SDS011;58897;51.960;5.582;2023-04-16T13:56:21;18.77;;;10.60;;
12986;SDS011;58897;51.960;5.582;2023-04-16T13:58:47;17.50;;;11.03;;
12986;SDS011;58897;51.960;5.582;2023-04-16T14:01:14;26.20;;;11.03;;
12986;SDS011;58897;51.960;5.582;2023-04-16T14:03:42;21.27;;;10.53;;
12986;SDS011;58897;51.960;5.582;2023-04-16T14:06:09;17.97;;;9.70;;
12986;SDS011;58897;51.960;5.582;2023-04-16T14:08:35;20.57;;;10.60;;
12986;SDS011;58897;51.960;5.582;2023-04-16T14:11:03;19.90;;;10.53;;
12986;SDS011;58897;51.960;5.582;2023-04-16T14:13:31;19.10;;;10.57;;
12986;SDS011;58897;51.960;5.582;2023-04-16T14:15:58;22.40;;;10.83;;
12986;SDS011;58897;51.960;5.582;2023-04-16T14:18:24;20.07;;;10.20;;
12986;SDS011;58897;51.960;5.582;2023-04-16T14:20:51;20.37;;;9.97;;
12986;SDS011;58897;51.960;5.582;2023-04-16T14:23:17;18.10;;;10.90;;
12986;SDS011;58897;51.960;5.582;2023-04-16T14:25:44;17.60;;;9.60;;
12986;SDS011;58897;51.960;5.582;2023-04-16T14:28:10;17.53;;;9.57;;
12986;SDS011;58897;51.960;5.582;2023-04-16T14:30:40;17.33;;;9.27;;
12986;SDS011;58897;51.960;5.582;2023-04-16T14:33:07;18.17;;;9.57;;
12986;SDS011;58897;51.960;5.582;2023-04-16T14:35:33;15.57;;;9.20;;
12986;SDS011;58897;51.960;5.582;2023-04-16T14:38:00;19.07;;;9.87;;
12986;SDS011;58897;51.960;5.582;2023-04-16T14:40:26;16.53;;;9.43;;
12986;SDS011;58897;51.960;5.582;2023-04-16T14:42:53;19.97;;;10.47;;
12986;SDS011;58897;51.960;5.582;2023-04-16T14:45:19;21.67;;;10.20;;
12986;SDS011;58897;51.960;5.582;2023-04-16T14:47:46;17.33;;;9.43;;
12986;SDS011;58897;51.960;5.582;2023-04-16T14:50:13;18.87;;;8.53;;
12986;SDS011;58897;51.960;5.582;2023-04-16T14:52:40;16.07;;;9.17;;
12986;SDS011;58897;51.960;5.582;2023-04-16T14:55:07;19.10;;;9.47;;